sensor_id;sensor_type;location;lat;lon;timestamp;P1;durP1;ratioP1;P2;durP2;ratioP2
11998;SDS011;40817;51.520;9.954;2022-12-18T00:01:38;37.87;;;18.10;;
11998;SDS011;40817;51.520;9.954;2022-12-18T00:04:06;37.63;;;17.77;;
11998;SDS011;40817;51.520;9.954;2022-12-18T00:06:44;35.27;;;16.43;;
11998;SDS011;40817;51.520;9.954;2022-12-18T00:09:12;28.47;;;14.13;;
11998;SDS011;40817;51.520;9.954;2022-12-18T00:11:41;27.63;;;13.23;;
11998;SDS011;40817;51.520;9.954;2022-12-18T00:14:11;25.10;;;13.10;;
11998;SDS011;40817;51.520;9.954;2022-12-18T00:16:42;23.23;;;11.77;;
11998;SDS011;40817;51.520;9.954;2022-12-18T00:19:12;23.30;;;12.73;;
11998;SDS011;40817;51.520;9.954;2022-12-18T00:21:41;21.20;;;9.83;;
11998;SDS011;40817;51.520;9.954;2022-12-18T00:24:10;21.83;;;12.27;;
11998;SDS011;40817;51.520;9.954;2022-12-18T00:26:38;22.87;;;11.27;;
11998;SDS011;40817;51.520;9.954;2022-12-18T00:29:09;24.57;;;12.13;;
11998;SDS011;40817;51.520;9.954;2022-12-18T00:31:40;20.93;;;10.17;;
11998;SDS011;40817;51.520;9.954;2022-12-18T00:34:09;20.77;;;11.67;;
11998;SDS011;40817;51.520;9.954;2022-12-18T00:36:39;20.90;;;10.87;;
11998;SDS011;40817;51.520;9.954;2022-12-18T00:39:07;19.60;;;8.80;;
11998;SDS011;40817;51.520;9.954;2022-12-18T00:41:37;19.03;;;9.87;;
11998;SDS011;40817;51.520;9.954;2022-12-18T00:44:24;22.40;;;10.37;;
11998;SDS011;40817;51.520;9.954;2022-12-18T00:46:52;16.77;;;8.70;;
11998;SDS011;40817;51.520;9.954;2022-12-18T00:49:19;15.73;;;8.13;;
11998;SDS011;40817;51.520;9.954;2022-12-18T00:51:48;19.00;;;9.13;;
11998;SDS011;40817;51.520;9.954;2022-12-18T00:54:16;15.67;;;8.50;;
11998;SDS011;40817;51.520;9.954;2022-12-18T00:56:44;17.37;;;8.80;;
11998;SDS011;40817;51.520;9.954;2022-12-18T00:59:12;14.20;;;8.30;;
11998;SDS011;40817;51.520;9.954;2022-12-18T01:01:41;17.20;;;7.47;;
11998;SDS011;40817;51.520;9.954;2022-12-18T01:04:09;15.20;;;8.10;;
11998;SDS011;40817;51.520;9.954;2022-12-18T01:06:37;15.53;;;7.30;;
11998;SDS011;40817;51.520;9.954;2022-12-18T01:09:04;15.13;;;8.20;;
11998;SDS011;40817;51.520;9.954;2022-12-18T01:11:32;15.50;;;7.20;;
11998;SDS011;40817;51.520;9.954;2022-12-18T01:14:00;15.43;;;7.33;;
11998;SDS011;40817;51.520;9.954;2022-12-18T01:16:28;16.07;;;8.53;;
11998;SDS011;40817;51.520;9.954;2022-12-18T01:18:57;15.13;;;7.40;;
11998;SDS011;40817;51.520;9.954;2022-12-18T01:21:25;17.80;;;7.93;;
11998;SDS011;40817;51.520;9.954;2022-12-18T01:23:53;15.73;;;7.43;;
11998;SDS011;40817;51.520;9.954;2022-12-18T01:26:25;15.17;;;7.30;;
11998;SDS011;40817;51.520;9.954;2022-12-18T01:28:55;12.33;;;6.97;;
11998;SDS011;40817;51.520;9.954;2022-12-18T01:31:24;14.50;;;8.13;;
11998;SDS011;40817;51.520;9.954;2022-12-18T01:33:56;17.63;;;9.80;;
11998;SDS011;40817;51.520;9.954;2022-12-18T01:36:28;19.83;;;9.20;;
11998;SDS011;40817;51.520;9.954;2022-12-18T01:38:59;17.73;;;9.50;;
11998;SDS011;40817;51.520;9.954;2022-12-18T01:41:29;21.43;;;10.27;;
11998;SDS011;40817;51.520;9.954;2022-12-18T01:47:30;22.60;;;10.43;;
11998;SDS011;40817;51.520;9.954;2022-12-18T01:50:07;23.10;;;10.90;;
11998;SDS011;40817;51.520;9.954;2022-12-18T01:52:39;28.03;;;11.37;;
11998;SDS011;40817;51.520;9.954;2022-12-18T01:55:11;21.27;;;10.80;;
11998;SDS011;40817;51.520;9.954;2022-12-18T01:57:41;22.67;;;10.97;;
11998;SDS011;40817;51.520;9.954;2022-12-18T02:00:11;22.33;;;10.60;;
11998;SDS011;40817;51.520;9.954;2022-12-18T02:02:43;19.73;;;10.07;;
11998;SDS011;40817;51.520;9.954;2022-12-18T02:05:15;22.87;;;11.13;;
11998;SDS011;40817;51.520;9.954;2022-12-18T02:07:52;23.27;;;11.25;;
11998;SDS011;40817;51.520;9.954;2022-12-18T02:10:36;18.83;;;10.90;;
11998;SDS011;40817;51.520;9.954;2022-12-18T02:13:21;25.80;;;12.13;;
11998;SDS011;40817;51.520;9.954;2022-12-18T02:16:02;24.23;;;12.07;;
11998;SDS011;40817;51.520;9.954;2022-12-18T02:18:43;23.17;;;10.57;;
11998;SDS011;40817;51.520;9.954;2022-12-18T02:21:20;24.00;;;11.70;;
11998;SDS011;40817;51.520;9.954;2022-12-18T02:24:04;26.50;;;13.13;;
11998;SDS011;40817;51.520;9.954;2022-12-18T02:26:55;24.80;;;11.60;;
11998;SDS011;40817;51.520;9.954;2022-12-18T02:29:27;29.00;;;12.53;;
11998;SDS011;40817;51.520;9.954;2022-12-18T02:32:06;28.30;;;13.43;;
11998;SDS011;40817;51.520;9.954;2022-12-18T02:34:40;22.47;;;11.83;;
11998;SDS011;40817;51.520;9.954;2022-12-18T02:37:10;23.20;;;12.33;;
11998;SDS011;40817;51.520;9.954;2022-12-18T02:39:43;22.10;;;10.67;;
11998;SDS011;40817;51.520;9.954;2022-12-18T02:42:17;20.17;;;10.57;;
11998;SDS011;40817;51.520;9.954;2022-12-18T02:44:45;17.60;;;9.80;;
11998;SDS011;40817;51.520;9.954;2022-12-18T02:47:16;19.13;;;10.10;;
11998;SDS011;40817;51.520;9.954;2022-12-18T02:49:49;29.93;;;11.37;;
11998;SDS011;40817;51.520;9.954;2022-12-18T02:52:29;20.30;;;9.70;;
11998;SDS011;40817;51.520;9.954;2022-12-18T02:55:17;14.57;;;7.43;;
11998;SDS011;40817;51.520;9.954;2022-12-18T02:58:05;17.20;;;7.40;;
11998;SDS011;40817;51.520;9.954;2022-12-18T03:00:43;14.00;;;6.97;;
11998;SDS011;40817;51.520;9.954;2022-12-18T03:05:56;14.77;;;7.23;;
11998;SDS011;40817;51.520;9.954;2022-12-18T03:08:33;16.48;;;7.20;;
11998;SDS011;40817;51.520;9.954;2022-12-18T03:11:07;13.63;;;6.17;;
11998;SDS011;40817;51.520;9.954;2022-12-18T03:13:39;12.10;;;6.80;;
11998;SDS011;40817;51.520;9.954;2022-12-18T03:16:14;14.30;;;7.67;;
11998;SDS011;40817;51.520;9.954;2022-12-18T03:18:49;13.17;;;7.73;;
11998;SDS011;40817;51.520;9.954;2022-12-18T03:21:23;15.30;;;6.87;;
11998;SDS011;40817;51.520;9.954;2022-12-18T03:23:59;13.73;;;7.10;;
11998;SDS011;40817;51.520;9.954;2022-12-18T03:26:30;13.87;;;7.07;;
11998;SDS011;40817;51.520;9.954;2022-12-18T03:29:03;14.67;;;7.17;;
11998;SDS011;40817;51.520;9.954;2022-12-18T03:31:39;13.43;;;7.33;;
11998;SDS011;40817;51.520;9.954;2022-12-18T03:34:11;14.87;;;7.07;;
11998;SDS011;40817;51.520;9.954;2022-12-18T03:36:45;14.23;;;6.90;;
11998;SDS011;40817;51.520;9.954;2022-12-18T03:39:13;18.90;;;7.27;;
11998;SDS011;40817;51.520;9.954;2022-12-18T03:41:42;13.60;;;7.00;;
11998;SDS011;40817;51.520;9.954;2022-12-18T03:44:19;14.03;;;7.17;;
11998;SDS011;40817;51.520;9.954;2022-12-18T03:46:56;16.63;;;8.40;;
11998;SDS011;40817;51.520;9.954;2022-12-18T03:49:34;16.13;;;8.33;;
11998;SDS011;40817;51.520;9.954;2022-12-18T03:52:09;14.97;;;8.40;;
11998;SDS011;40817;51.520;9.954;2022-12-18T03:54:44;15.13;;;7.20;;
11998;SDS011;40817;51.520;9.954;2022-12-18T03:57:13;14.37;;;7.10;;
11998;SDS011;40817;51.520;9.954;2022-12-18T03:59:49;15.57;;;7.37;;
11998;SDS011;40817;51.520;9.954;2022-12-18T04:02:22;18.83;;;9.10;;
11998;SDS011;40817;51.520;9.954;2022-12-18T04:05:11;18.53;;;9.00;;
11998;SDS011;40817;51.520;9.954;2022-12-18T04:08:00;20.80;;;10.20;;
11998;SDS011;40817;51.520;9.954;2022-12-18T04:10:48;21.93;;;10.60;;
11998;SDS011;40817;51.520;9.954;2022-12-18T04:13:36;15.63;;;9.50;;
11998;SDS011;40817;51.520;9.954;2022-12-18T04:16:26;20.63;;;10.47;;
11998;SDS011;40817;51.520;9.954;2022-12-18T04:19:14;25.27;;;10.40;;
11998;SDS011;40817;51.520;9.954;2022-12-18T04:21:42;22.07;;;9.47;;
11998;SDS011;40817;51.520;9.954;2022-12-18T04:24:11;18.33;;;9.07;;
11998;SDS011;40817;51.520;9.954;2022-12-18T04:26:38;18.20;;;9.80;;
11998;SDS011;40817;51.520;9.954;2022-12-18T04:29:06;23.63;;;9.70;;
11998;SDS011;40817;51.520;9.954;2022-12-18T04:31:35;22.53;;;10.17;;
11998;SDS011;40817;51.520;9.954;2022-12-18T04:34:02;23.37;;;11.17;;
11998;SDS011;40817;51.520;9.954;2022-12-18T04:36:30;22.93;;;10.10;;
11998;SDS011;40817;51.520;9.954;2022-12-18T04:38:58;21.60;;;9.63;;
11998;SDS011;40817;51.520;9.954;2022-12-18T04:41:26;17.07;;;9.57;;
11998;SDS011;40817;51.520;9.954;2022-12-18T04:43:53;24.57;;;10.83;;
11998;SDS011;40817;51.520;9.954;2022-12-18T04:46:21;20.43;;;10.73;;
11998;SDS011;40817;51.520;9.954;2022-12-18T04:48:50;19.10;;;9.43;;
11998;SDS011;40817;51.520;9.954;2022-12-18T04:51:17;20.77;;;9.70;;
11998;SDS011;40817;51.520;9.954;2022-12-18T04:53:45;19.83;;;9.53;;
11998;SDS011;40817;51.520;9.954;2022-12-18T04:56:13;19.97;;;10.00;;
11998;SDS011;40817;51.520;9.954;2022-12-18T04:58:43;19.20;;;10.07;;
11998;SDS011;40817;51.520;9.954;2022-12-18T05:01:11;20.30;;;8.20;;
11998;SDS011;40817;51.520;9.954;2022-12-18T05:03:44;19.33;;;8.00;;
11998;SDS011;40817;51.520;9.954;2022-12-18T05:06:13;15.00;;;7.07;;
11998;SDS011;40817;51.520;9.954;2022-12-18T05:08:41;13.50;;;7.17;;
11998;SDS011;40817;51.520;9.954;2022-12-18T05:11:09;15.67;;;7.50;;
11998;SDS011;40817;51.520;9.954;2022-12-18T05:13:41;11.73;;;6.83;;
11998;SDS011;40817;51.520;9.954;2022-12-18T05:16:11;15.07;;;7.60;;
11998;SDS011;40817;51.520;9.954;2022-12-18T05:18:40;16.40;;;8.27;;
11998;SDS011;40817;51.520;9.954;2022-12-18T05:21:08;19.00;;;7.13;;
11998;SDS011;40817;51.520;9.954;2022-12-18T05:23:37;13.50;;;6.97;;
11998;SDS011;40817;51.520;9.954;2022-12-18T05:26:05;17.43;;;7.93;;
11998;SDS011;40817;51.520;9.954;2022-12-18T05:28:34;17.63;;;8.90;;
11998;SDS011;40817;51.520;9.954;2022-12-18T05:31:12;15.53;;;7.77;;
11998;SDS011;40817;51.520;9.954;2022-12-18T05:33:40;13.13;;;6.87;;
11998;SDS011;40817;51.520;9.954;2022-12-18T05:36:08;13.90;;;6.77;;
11998;SDS011;40817;51.520;9.954;2022-12-18T05:38:42;10.77;;;6.00;;
11998;SDS011;40817;51.520;9.954;2022-12-18T05:41:10;15.77;;;7.10;;
11998;SDS011;40817;51.520;9.954;2022-12-18T05:43:38;18.37;;;8.30;;
11998;SDS011;40817;51.520;9.954;2022-12-18T05:46:08;19.50;;;8.03;;
11998;SDS011;40817;51.520;9.954;2022-12-18T05:48:40;15.50;;;8.07;;
11998;SDS011;40817;51.520;9.954;2022-12-18T05:51:08;17.53;;;7.33;;
11998;SDS011;40817;51.520;9.954;2022-12-18T05:53:40;12.87;;;6.67;;
11998;SDS011;40817;51.520;9.954;2022-12-18T05:56:10;16.27;;;6.77;;
11998;SDS011;40817;51.520;9.954;2022-12-18T05:58:42;13.20;;;7.40;;
11998;SDS011;40817;51.520;9.954;2022-12-18T06:01:11;15.13;;;6.90;;
11998;SDS011;40817;51.520;9.954;2022-12-18T06:03:43;14.30;;;6.53;;
11998;SDS011;40817;51.520;9.954;2022-12-18T06:06:14;14.37;;;7.63;;
11998;SDS011;40817;51.520;9.954;2022-12-18T06:08:45;14.37;;;7.10;;
11998;SDS011;40817;51.520;9.954;2022-12-18T06:11:15;12.93;;;7.43;;
11998;SDS011;40817;51.520;9.954;2022-12-18T06:13:46;15.63;;;7.50;;
11998;SDS011;40817;51.520;9.954;2022-12-18T06:16:17;15.70;;;7.70;;
11998;SDS011;40817;51.520;9.954;2022-12-18T06:18:45;19.37;;;7.53;;
11998;SDS011;40817;51.520;9.954;2022-12-18T06:21:26;12.90;;;7.23;;
11998;SDS011;40817;51.520;9.954;2022-12-18T06:23:56;12.57;;;6.63;;
11998;SDS011;40817;51.520;9.954;2022-12-18T06:26:24;13.27;;;6.17;;
11998;SDS011;40817;51.520;9.954;2022-12-18T06:28:52;15.83;;;7.67;;
11998;SDS011;40817;51.520;9.954;2022-12-18T06:31:19;13.27;;;6.40;;
11998;SDS011;40817;51.520;9.954;2022-12-18T06:33:47;14.33;;;6.90;;
11998;SDS011;40817;51.520;9.954;2022-12-18T06:36:15;11.10;;;6.47;;
11998;SDS011;40817;51.520;9.954;2022-12-18T06:38:43;28.33;;;8.03;;
11998;SDS011;40817;51.520;9.954;2022-12-18T06:41:25;12.57;;;6.00;;
11998;SDS011;40817;51.520;9.954;2022-12-18T06:43:53;13.43;;;7.33;;
11998;SDS011;40817;51.520;9.954;2022-12-18T06:46:21;13.50;;;6.63;;
11998;SDS011;40817;51.520;9.954;2022-12-18T06:48:48;11.07;;;5.87;;
11998;SDS011;40817;51.520;9.954;2022-12-18T06:51:17;13.13;;;5.97;;
11998;SDS011;40817;51.520;9.954;2022-12-18T06:53:46;11.40;;;5.33;;
11998;SDS011;40817;51.520;9.954;2022-12-18T06:56:15;14.70;;;6.07;;
11998;SDS011;40817;51.520;9.954;2022-12-18T06:58:44;15.27;;;7.10;;
11998;SDS011;40817;51.520;9.954;2022-12-18T07:01:12;11.33;;;5.77;;
11998;SDS011;40817;51.520;9.954;2022-12-18T07:03:40;12.53;;;6.37;;
11998;SDS011;40817;51.520;9.954;2022-12-18T07:06:12;14.70;;;5.87;;
11998;SDS011;40817;51.520;9.954;2022-12-18T07:08:42;12.77;;;6.23;;
11998;SDS011;40817;51.520;9.954;2022-12-18T07:11:10;12.70;;;5.93;;
11998;SDS011;40817;51.520;9.954;2022-12-18T07:13:38;14.03;;;5.63;;
11998;SDS011;40817;51.520;9.954;2022-12-18T07:16:09;13.13;;;5.67;;
11998;SDS011;40817;51.520;9.954;2022-12-18T07:18:40;13.90;;;5.83;;
11998;SDS011;40817;51.520;9.954;2022-12-18T07:21:08;11.03;;;5.80;;
11998;SDS011;40817;51.520;9.954;2022-12-18T07:23:40;15.43;;;6.37;;
11998;SDS011;40817;51.520;9.954;2022-12-18T07:26:08;11.97;;;6.10;;
11998;SDS011;40817;51.520;9.954;2022-12-18T07:28:42;12.30;;;6.00;;
11998;SDS011;40817;51.520;9.954;2022-12-18T07:31:11;14.63;;;6.40;;
11998;SDS011;40817;51.520;9.954;2022-12-18T07:33:42;13.90;;;6.57;;
11998;SDS011;40817;51.520;9.954;2022-12-18T07:36:11;14.83;;;7.23;;
11998;SDS011;40817;51.520;9.954;2022-12-18T07:38:39;14.67;;;7.23;;
11998;SDS011;40817;51.520;9.954;2022-12-18T07:41:07;14.20;;;7.13;;
11998;SDS011;40817;51.520;9.954;2022-12-18T07:43:39;12.40;;;6.63;;
11998;SDS011;40817;51.520;9.954;2022-12-18T07:46:08;11.10;;;6.60;;
11998;SDS011;40817;51.520;9.954;2022-12-18T07:48:39;16.20;;;6.93;;
11998;SDS011;40817;51.520;9.954;2022-12-18T07:51:07;13.37;;;6.87;;
11998;SDS011;40817;51.520;9.954;2022-12-18T07:53:36;14.30;;;6.97;;
11998;SDS011;40817;51.520;9.954;2022-12-18T07:56:04;12.93;;;7.63;;
11998;SDS011;40817;51.520;9.954;2022-12-18T07:58:35;13.97;;;7.53;;
11998;SDS011;40817;51.520;9.954;2022-12-18T08:01:04;12.17;;;6.57;;
11998;SDS011;40817;51.520;9.954;2022-12-18T08:03:35;15.67;;;6.80;;
11998;SDS011;40817;51.520;9.954;2022-12-18T08:06:05;16.03;;;6.67;;
11998;SDS011;40817;51.520;9.954;2022-12-18T08:08:35;13.50;;;7.37;;
11998;SDS011;40817;51.520;9.954;2022-12-18T08:11:03;12.03;;;6.13;;
11998;SDS011;40817;51.520;9.954;2022-12-18T08:13:31;11.77;;;6.83;;
11998;SDS011;40817;51.520;9.954;2022-12-18T08:15:59;16.00;;;7.13;;
11998;SDS011;40817;51.520;9.954;2022-12-18T08:18:29;15.00;;;7.03;;
11998;SDS011;40817;51.520;9.954;2022-12-18T08:21:02;13.67;;;7.63;;
11998;SDS011;40817;51.520;9.954;2022-12-18T08:26:03;12.50;;;7.28;;
11998;SDS011;40817;51.520;9.954;2022-12-18T08:28:31;16.93;;;8.30;;
11998;SDS011;40817;51.520;9.954;2022-12-18T08:30:59;19.87;;;9.73;;
11998;SDS011;40817;51.520;9.954;2022-12-18T08:33:27;21.83;;;9.57;;
11998;SDS011;40817;51.520;9.954;2022-12-18T08:35:54;18.20;;;10.63;;
11998;SDS011;40817;51.520;9.954;2022-12-18T08:38:23;19.50;;;9.40;;
11998;SDS011;40817;51.520;9.954;2022-12-18T08:40:54;25.77;;;11.63;;
11998;SDS011;40817;51.520;9.954;2022-12-18T08:43:26;24.73;;;10.70;;
11998;SDS011;40817;51.520;9.954;2022-12-18T08:46:11;26.70;;;12.33;;
11998;SDS011;40817;51.520;9.954;2022-12-18T08:48:39;24.77;;;12.60;;
11998;SDS011;40817;51.520;9.954;2022-12-18T08:51:07;24.30;;;12.77;;
11998;SDS011;40817;51.520;9.954;2022-12-18T08:53:37;24.93;;;13.97;;
11998;SDS011;40817;51.520;9.954;2022-12-18T08:56:05;27.60;;;13.43;;
11998;SDS011;40817;51.520;9.954;2022-12-18T08:58:34;27.87;;;14.20;;
11998;SDS011;40817;51.520;9.954;2022-12-18T09:01:01;27.53;;;13.90;;
11998;SDS011;40817;51.520;9.954;2022-12-18T09:03:31;28.80;;;14.10;;
11998;SDS011;40817;51.520;9.954;2022-12-18T09:05:59;30.27;;;13.83;;
11998;SDS011;40817;51.520;9.954;2022-12-18T09:08:27;25.23;;;13.67;;
11998;SDS011;40817;51.520;9.954;2022-12-18T09:10:56;24.87;;;12.57;;
11998;SDS011;40817;51.520;9.954;2022-12-18T09:13:24;27.40;;;13.00;;
11998;SDS011;40817;51.520;9.954;2022-12-18T09:15:53;24.30;;;12.70;;
11998;SDS011;40817;51.520;9.954;2022-12-18T09:18:22;24.80;;;12.57;;
11998;SDS011;40817;51.520;9.954;2022-12-18T09:20:50;25.60;;;12.60;;
11998;SDS011;40817;51.520;9.954;2022-12-18T09:23:18;25.63;;;12.27;;
11998;SDS011;40817;51.520;9.954;2022-12-18T09:25:46;23.03;;;12.17;;
11998;SDS011;40817;51.520;9.954;2022-12-18T09:28:15;24.40;;;11.23;;
11998;SDS011;40817;51.520;9.954;2022-12-18T09:30:46;20.93;;;10.53;;
11998;SDS011;40817;51.520;9.954;2022-12-18T09:33:16;20.20;;;10.80;;
11998;SDS011;40817;51.520;9.954;2022-12-18T09:35:44;25.03;;;11.33;;
11998;SDS011;40817;51.520;9.954;2022-12-18T09:38:13;19.60;;;11.63;;
11998;SDS011;40817;51.520;9.954;2022-12-18T09:40:45;18.93;;;11.07;;
11998;SDS011;40817;51.520;9.954;2022-12-18T09:43:20;23.07;;;13.43;;
11998;SDS011;40817;51.520;9.954;2022-12-18T09:45:57;21.77;;;12.37;;
11998;SDS011;40817;51.520;9.954;2022-12-18T09:48:31;21.17;;;11.90;;
11998;SDS011;40817;51.520;9.954;2022-12-18T09:51:05;19.73;;;11.73;;
11998;SDS011;40817;51.520;9.954;2022-12-18T09:53:42;17.95;;;10.27;;
11998;SDS011;40817;51.520;9.954;2022-12-18T09:56:18;18.90;;;9.75;;
11998;SDS011;40817;51.520;9.954;2022-12-18T09:58:53;18.73;;;10.13;;
11998;SDS011;40817;51.520;9.954;2022-12-18T10:01:27;20.60;;;10.63;;
11998;SDS011;40817;51.520;9.954;2022-12-18T10:03:56;16.43;;;9.53;;
11998;SDS011;40817;51.520;9.954;2022-12-18T10:06:26;19.37;;;11.13;;
11998;SDS011;40817;51.520;9.954;2022-12-18T10:09:06;17.97;;;10.67;;
11998;SDS011;40817;51.520;9.954;2022-12-18T10:11:52;20.03;;;10.53;;
11998;SDS011;40817;51.520;9.954;2022-12-18T10:14:34;19.67;;;11.00;;
11998;SDS011;40817;51.520;9.954;2022-12-18T10:17:15;18.57;;;11.00;;
11998;SDS011;40817;51.520;9.954;2022-12-18T10:19:53;20.63;;;11.00;;
11998;SDS011;40817;51.520;9.954;2022-12-18T10:22:30;21.80;;;11.40;;
11998;SDS011;40817;51.520;9.954;2022-12-18T10:25:16;19.47;;;11.67;;
11998;SDS011;40817;51.520;9.954;2022-12-18T10:27:51;26.30;;;12.50;;
11998;SDS011;40817;51.520;9.954;2022-12-18T10:30:25;23.63;;;12.57;;
11998;SDS011;40817;51.520;9.954;2022-12-18T10:32:53;19.20;;;10.80;;
11998;SDS011;40817;51.520;9.954;2022-12-18T10:35:22;19.47;;;10.67;;
11998;SDS011;40817;51.520;9.954;2022-12-18T10:38:00;18.50;;;10.97;;
11998;SDS011;40817;51.520;9.954;2022-12-18T10:40:49;17.17;;;9.83;;
11998;SDS011;40817;51.520;9.954;2022-12-18T10:43:22;16.25;;;9.40;;
11998;SDS011;40817;51.520;9.954;2022-12-18T10:46:02;17.85;;;10.45;;
11998;SDS011;40817;51.520;9.954;2022-12-18T10:48:53;19.20;;;10.80;;
11998;SDS011;40817;51.520;9.954;2022-12-18T10:51:24;20.88;;;10.88;;
11998;SDS011;40817;51.520;9.954;2022-12-18T10:53:56;20.38;;;10.98;;
11998;SDS011;40817;51.520;9.954;2022-12-18T10:56:27;19.55;;;10.93;;
11998;SDS011;40817;51.520;9.954;2022-12-18T10:58:59;15.52;;;9.40;;
11998;SDS011;40817;51.520;9.954;2022-12-18T11:01:33;14.25;;;9.23;;
11998;SDS011;40817;51.520;9.954;2022-12-18T11:04:16;12.05;;;6.68;;
11998;SDS011;40817;51.520;9.954;2022-12-18T11:06:55;11.18;;;6.63;;
11998;SDS011;40817;51.520;9.954;2022-12-18T11:09:26;10.45;;;6.07;;
11998;SDS011;40817;51.520;9.954;2022-12-18T11:12:05;9.02;;;5.03;;
11998;SDS011;40817;51.520;9.954;2022-12-18T11:14:44;9.07;;;5.50;;
11998;SDS011;40817;51.520;9.954;2022-12-18T11:17:19;9.65;;;4.95;;
11998;SDS011;40817;51.520;9.954;2022-12-18T11:19:54;9.63;;;5.03;;
11998;SDS011;40817;51.520;9.954;2022-12-18T11:22:24;9.32;;;4.53;;
11998;SDS011;40817;51.520;9.954;2022-12-18T11:24:55;9.98;;;5.60;;
11998;SDS011;40817;51.520;9.954;2022-12-18T11:27:27;9.38;;;5.47;;
11998;SDS011;40817;51.520;9.954;2022-12-18T11:30:07;13.73;;;5.70;;
11998;SDS011;40817;51.520;9.954;2022-12-18T11:32:38;10.85;;;5.88;;
11998;SDS011;40817;51.520;9.954;2022-12-18T11:35:14;11.35;;;6.20;;
11998;SDS011;40817;51.520;9.954;2022-12-18T11:40:30;9.70;;;5.50;;
11998;SDS011;40817;51.520;9.954;2022-12-18T11:43:04;9.82;;;5.35;;
11998;SDS011;40817;51.520;9.954;2022-12-18T11:45:40;10.05;;;5.75;;
11998;SDS011;40817;51.520;9.954;2022-12-18T11:48:18;10.57;;;5.75;;
11998;SDS011;40817;51.520;9.954;2022-12-18T11:50:51;10.27;;;5.57;;
11998;SDS011;40817;51.520;9.954;2022-12-18T11:53:21;11.25;;;5.80;;
11998;SDS011;40817;51.520;9.954;2022-12-18T11:55:55;13.15;;;6.32;;
11998;SDS011;40817;51.520;9.954;2022-12-18T11:58:40;12.07;;;6.03;;
11998;SDS011;40817;51.520;9.954;2022-12-18T12:01:16;11.48;;;6.25;;
11998;SDS011;40817;51.520;9.954;2022-12-18T12:04:07;12.55;;;6.53;;
11998;SDS011;40817;51.520;9.954;2022-12-18T12:07:22;8.60;;;4.95;;
11998;SDS011;40817;51.520;9.954;2022-12-18T12:10:06;8.48;;;5.10;;
11998;SDS011;40817;51.520;9.954;2022-12-18T12:12:55;8.65;;;5.80;;
11998;SDS011;40817;51.520;9.954;2022-12-18T12:15:42;8.90;;;4.63;;
11998;SDS011;40817;51.520;9.954;2022-12-18T12:18:24;9.00;;;5.40;;
11998;SDS011;40817;51.520;9.954;2022-12-18T12:21:09;11.88;;;5.45;;
11998;SDS011;40817;51.520;9.954;2022-12-18T12:23:47;12.93;;;5.82;;
11998;SDS011;40817;51.520;9.954;2022-12-18T12:26:28;11.43;;;5.47;;
11998;SDS011;40817;51.520;9.954;2022-12-18T12:32:11;9.60;;;5.15;;
11998;SDS011;40817;51.520;9.954;2022-12-18T12:35:03;11.82;;;5.07;;
11998;SDS011;40817;51.520;9.954;2022-12-18T12:37:51;16.65;;;6.30;;
11998;SDS011;40817;51.520;9.954;2022-12-18T12:40:35;9.17;;;4.60;;
11998;SDS011;40817;51.520;9.954;2022-12-18T12:43:12;13.65;;;7.00;;
11998;SDS011;40817;51.520;9.954;2022-12-18T12:45:53;14.00;;;6.07;;
11998;SDS011;40817;51.520;9.954;2022-12-18T12:48:31;8.32;;;3.47;;
11998;SDS011;40817;51.520;9.954;2022-12-18T12:51:15;7.00;;;3.70;;
11998;SDS011;40817;51.520;9.954;2022-12-18T12:53:48;5.47;;;3.13;;
11998;SDS011;40817;51.520;9.954;2022-12-18T12:56:17;10.23;;;4.30;;
11998;SDS011;40817;51.520;9.954;2022-12-18T12:58:51;9.77;;;5.00;;
11998;SDS011;40817;51.520;9.954;2022-12-18T13:01:30;7.63;;;4.65;;
11998;SDS011;40817;51.520;9.954;2022-12-18T13:04:11;10.77;;;4.70;;
11998;SDS011;40817;51.520;9.954;2022-12-18T13:06:50;9.75;;;4.47;;
11998;SDS011;40817;51.520;9.954;2022-12-18T13:09:26;8.80;;;4.78;;
11998;SDS011;40817;51.520;9.954;2022-12-18T13:12:01;10.90;;;4.93;;
11998;SDS011;40817;51.520;9.954;2022-12-18T13:14:54;8.20;;;4.35;;
11998;SDS011;40817;51.520;9.954;2022-12-18T13:17:47;11.05;;;5.00;;
11998;SDS011;40817;51.520;9.954;2022-12-18T13:20:15;8.52;;;4.10;;
11998;SDS011;40817;51.520;9.954;2022-12-18T13:22:46;11.43;;;5.72;;
11998;SDS011;40817;51.520;9.954;2022-12-18T13:25:28;7.80;;;4.53;;
11998;SDS011;40817;51.520;9.954;2022-12-18T13:28:10;8.15;;;4.15;;
11998;SDS011;40817;51.520;9.954;2022-12-18T13:30:49;8.45;;;4.20;;
11998;SDS011;40817;51.520;9.954;2022-12-18T13:33:37;7.85;;;3.78;;
11998;SDS011;40817;51.520;9.954;2022-12-18T13:36:24;7.43;;;4.20;;
11998;SDS011;40817;51.520;9.954;2022-12-18T13:45:35;5.55;;;3.58;;
11998;SDS011;40817;51.520;9.954;2022-12-18T13:48:15;8.13;;;3.95;;
11998;SDS011;40817;51.520;9.954;2022-12-18T13:53:38;7.72;;;4.30;;
11998;SDS011;40817;51.520;9.954;2022-12-18T13:56:15;9.35;;;4.53;;
11998;SDS011;40817;51.520;9.954;2022-12-18T14:01:47;8.52;;;4.30;;
11998;SDS011;40817;51.520;9.954;2022-12-18T14:04:22;8.73;;;4.22;;
11998;SDS011;40817;51.520;9.954;2022-12-18T14:06:55;8.35;;;4.07;;
11998;SDS011;40817;51.520;9.954;2022-12-18T14:09:30;7.75;;;4.35;;
11998;SDS011;40817;51.520;9.954;2022-12-18T14:12:17;6.78;;;4.30;;
11998;SDS011;40817;51.520;9.954;2022-12-18T14:15:14;11.43;;;4.90;;
11998;SDS011;40817;51.520;9.954;2022-12-18T14:17:57;6.43;;;4.18;;
11998;SDS011;40817;51.520;9.954;2022-12-18T14:20:32;8.75;;;4.38;;
11998;SDS011;40817;51.520;9.954;2022-12-18T14:23:00;8.90;;;3.92;;
11998;SDS011;40817;51.520;9.954;2022-12-18T14:25:30;7.85;;;4.10;;
11998;SDS011;40817;51.520;9.954;2022-12-18T14:28:02;7.13;;;3.90;;
11998;SDS011;40817;51.520;9.954;2022-12-18T14:30:45;5.85;;;4.20;;
11998;SDS011;40817;51.520;9.954;2022-12-18T14:33:16;8.00;;;3.35;;
11998;SDS011;40817;51.520;9.954;2022-12-18T14:35:55;8.27;;;3.80;;
11998;SDS011;40817;51.520;9.954;2022-12-18T14:38:27;7.68;;;4.03;;
11998;SDS011;40817;51.520;9.954;2022-12-18T14:40:57;8.07;;;4.28;;
11998;SDS011;40817;51.520;9.954;2022-12-18T14:43:31;7.78;;;4.38;;
11998;SDS011;40817;51.520;9.954;2022-12-18T14:46:03;6.53;;;3.78;;
11998;SDS011;40817;51.520;9.954;2022-12-18T14:48:59;7.50;;;3.78;;
11998;SDS011;40817;51.520;9.954;2022-12-18T14:51:31;7.07;;;3.97;;
11998;SDS011;40817;51.520;9.954;2022-12-18T14:54:01;7.75;;;4.13;;
11998;SDS011;40817;51.520;9.954;2022-12-18T14:56:34;7.40;;;4.18;;
11998;SDS011;40817;51.520;9.954;2022-12-18T14:59:12;7.55;;;4.25;;
11998;SDS011;40817;51.520;9.954;2022-12-18T15:01:50;10.20;;;5.82;;
11998;SDS011;40817;51.520;9.954;2022-12-18T15:04:31;7.57;;;3.95;;
11998;SDS011;40817;51.520;9.954;2022-12-18T15:07:05;8.30;;;5.03;;
11998;SDS011;40817;51.520;9.954;2022-12-18T15:09:42;9.27;;;4.75;;
11998;SDS011;40817;51.520;9.954;2022-12-18T15:12:33;10.43;;;4.57;;
11998;SDS011;40817;51.520;9.954;2022-12-18T15:15:03;9.57;;;5.07;;
11998;SDS011;40817;51.520;9.954;2022-12-18T15:18:03;8.20;;;4.78;;
11998;SDS011;40817;51.520;9.954;2022-12-18T15:20:42;7.80;;;5.40;;
11998;SDS011;40817;51.520;9.954;2022-12-18T15:23:14;8.55;;;4.45;;
11998;SDS011;40817;51.520;9.954;2022-12-18T15:25:55;7.05;;;4.35;;
11998;SDS011;40817;51.520;9.954;2022-12-18T15:28:29;8.70;;;5.03;;
11998;SDS011;40817;51.520;9.954;2022-12-18T15:31:04;9.30;;;5.10;;
11998;SDS011;40817;51.520;9.954;2022-12-18T15:36:49;11.02;;;5.90;;
11998;SDS011;40817;51.520;9.954;2022-12-18T15:39:17;9.50;;;6.07;;
11998;SDS011;40817;51.520;9.954;2022-12-18T15:41:45;10.23;;;6.20;;